createdAt,value
2018-06-30T00:00:31.243Z,64.70
2018-06-30T00:04:04.520Z,64.90
2018-06-30T00:07:37.807Z,65.00
2018-06-30T00:11:11.052Z,65.30
2018-06-30T00:14:44.319Z,65.60
2018-06-30T00:18:17.579Z,65.90
2018-06-30T00:21:50.833Z,66.10
2018-06-30T00:25:24.080Z,66.50
2018-06-30T00:28:57.342Z,66.50
2018-06-30T00:32:30.603Z,66.70
2018-06-30T00:36:03.914Z,67.10
2018-06-30T00:39:37.180Z,67.20
2018-06-30T00:43:10.424Z,67.30
2018-06-30T00:46:43.664Z,67.20
2018-06-30T00:50:16.930Z,66.90
2018-06-30T00:53:50.235Z,67.20
2018-06-30T00:57:23.851Z,67.40
2018-06-30T01:00:57.183Z,67.40
2018-06-30T01:04:30.434Z,67.30
2018-06-30T01:08:03.736Z,67.10
2018-06-30T01:11:36.999Z,67.20
2018-06-30T01:15:10.224Z,67.10
2018-06-30T01:18:43.489Z,67.00
2018-06-30T01:25:49.755Z,66.70
2018-06-30T01:29:23.006Z,66.90
2018-06-30T01:32:56.270Z,67.10
2018-06-30T01:36:29.541Z,67.10
2018-06-30T01:40:02.797Z,66.90
2018-06-30T01:47:09.087Z,67.00
2018-06-30T01:50:42.352Z,67.00
2018-06-30T01:54:15.588Z,67.00
2018-06-30T01:57:48.861Z,67.10
2018-06-30T02:01:22.125Z,67.10
2018-06-30T02:04:55.364Z,67.10
2018-06-30T02:08:28.611Z,67.50
2018-06-30T02:12:01.864Z,67.70
2018-06-30T02:15:35.116Z,67.90
2018-06-30T02:19:08.612Z,68.20
2018-06-30T02:22:41.857Z,69.10
2018-06-30T02:26:15.100Z,68.00
2018-06-30T02:29:48.340Z,67.90
2018-06-30T02:33:21.600Z,67.80
2018-06-30T02:36:54.859Z,67.80
2018-06-30T02:40:28.226Z,67.90
2018-06-30T02:44:01.456Z,67.90
2018-06-30T02:47:34.725Z,68.10
2018-06-30T02:51:07.976Z,68.30
2018-06-30T02:54:41.222Z,68.40
2018-06-30T02:58:14.468Z,68.20
2018-06-30T03:01:47.737Z,68.40
2018-06-30T03:05:21.002Z,68.20
2018-06-30T03:08:54.252Z,68.10
2018-06-30T03:12:27.494Z,68.00
2018-06-30T03:19:33.755Z,68.40
2018-06-30T03:23:07.128Z,68.10
2018-06-30T03:26:40.361Z,67.90
2018-06-30T03:30:13.613Z,67.60
2018-06-30T03:33:46.850Z,67.10
2018-06-30T03:37:20.106Z,66.80
2018-06-30T03:40:53.378Z,66.70
2018-06-30T03:44:26.628Z,66.40
2018-06-30T03:47:59.872Z,66.20
2018-06-30T03:51:33.128Z,66.00
2018-06-30T03:55:06.412Z,65.70
2018-06-30T03:58:39.669Z,65.70
2018-06-30T04:02:12.908Z,65.60
2018-06-30T04:05:46.164Z,65.50
2018-06-30T04:09:19.445Z,65.10
2018-06-30T04:12:52.708Z,65.00
2018-06-30T04:16:25.960Z,64.50
2018-06-30T04:19:59.217Z,64.40
2018-06-30T04:23:32.453Z,64.20
2018-06-30T04:27:05.711Z,63.90
2018-06-30T04:30:38.957Z,63.70
2018-06-30T04:34:12.224Z,63.50
2018-06-30T04:37:45.459Z,63.30
2018-06-30T04:41:18.700Z,63.20
2018-06-30T04:44:51.932Z,63.00
2018-06-30T04:48:25.169Z,62.80
2018-06-30T04:51:58.400Z,62.70
2018-06-30T04:55:31.659Z,62.70
2018-06-30T04:59:04.950Z,62.60
2018-06-30T05:02:38.244Z,62.50
2018-06-30T05:06:11.581Z,62.40
2018-06-30T05:20:23.785Z,61.10
2018-06-30T05:23:57.031Z,61.00
2018-06-30T05:27:30.253Z,60.60
2018-06-30T05:31:03.515Z,60.40
2018-06-30T05:34:36.754Z,60.00
2018-06-30T05:38:09.996Z,59.90
2018-06-30T05:41:43.249Z,60.80
2018-06-30T05:45:16.536Z,60.10
2018-06-30T05:48:49.767Z,60.00
2018-06-30T05:59:29.244Z,59.60
2018-06-30T06:03:02.395Z,59.20
2018-06-30T06:06:37.921Z,58.80
2018-06-30T06:10:11.159Z,58.90
2018-06-30T06:13:44.491Z,58.50
2018-06-30T06:17:17.704Z,58.30
2018-06-30T06:20:50.951Z,58.00
2018-06-30T06:24:24.453Z,57.60
2018-06-30T06:27:57.685Z,57.30
2018-06-30T06:31:30.929Z,57.10
2018-06-30T06:35:04.455Z,56.70
2018-06-30T06:38:37.707Z,56.50
2018-06-30T06:42:10.940Z,56.20
2018-06-30T06:45:44.190Z,55.60
2018-06-30T06:49:17.536Z,55.90
2018-06-30T06:52:50.764Z,56.00
2018-06-30T06:56:24.068Z,55.80
2018-06-30T06:59:57.302Z,55.40
2018-06-30T07:03:30.600Z,55.30
2018-06-30T07:07:03.840Z,55.20
2018-06-30T07:10:37.088Z,55.00
2018-06-30T07:14:10.948Z,54.80
2018-06-30T07:17:44.185Z,54.90
2018-06-30T07:21:17.426Z,55.00
2018-06-30T07:28:23.707Z,54.60
2018-06-30T07:31:56.944Z,54.70
2018-06-30T07:35:30.229Z,54.50
2018-06-30T07:42:37.956Z,54.10
2018-06-30T07:49:44.188Z,54.10
2018-06-30T07:53:18.107Z,53.60
2018-06-30T07:56:51.352Z,53.40
2018-06-30T08:00:24.608Z,53.00
2018-06-30T08:03:57.900Z,53.20
2018-06-30T08:07:31.849Z,52.50
2018-06-30T08:11:05.079Z,52.10
2018-06-30T08:18:11.297Z,51.30
2018-06-30T08:21:44.576Z,51.20
2018-06-30T08:25:17.829Z,50.70
2018-06-30T08:28:51.076Z,50.70
2018-06-30T08:32:24.384Z,50.80
2018-06-30T08:35:57.608Z,50.70
2018-06-30T08:39:30.856Z,50.60
2018-06-30T08:43:04.114Z,50.70
2018-06-30T08:50:10.866Z,50.40
2018-06-30T08:53:44.092Z,50.30
2018-06-30T08:57:17.341Z,49.90
2018-06-30T09:00:50.599Z,49.70
2018-06-30T09:04:23.848Z,49.10
2018-06-30T09:07:57.127Z,48.70
2018-06-30T09:11:30.355Z,48.70
2018-06-30T09:15:03.743Z,48.30
2018-06-30T09:18:36.999Z,47.90
2018-06-30T09:22:10.245Z,47.90
2018-06-30T09:25:43.468Z,47.80
2018-06-30T09:29:16.723Z,47.50
2018-06-30T09:32:50.224Z,46.80
2018-06-30T09:36:23.521Z,46.40
2018-06-30T09:39:56.756Z,46.10
2018-06-30T09:43:30.060Z,45.70
2018-06-30T09:47:03.301Z,45.80
2018-06-30T09:50:36.632Z,46.00
2018-06-30T09:54:09.903Z,46.00
2018-06-30T09:57:43.160Z,46.20
2018-06-30T10:01:16.421Z,46.00
2018-06-30T10:04:49.660Z,46.00
2018-06-30T10:08:22.925Z,45.90
2018-06-30T10:11:56.190Z,45.70
2018-06-30T10:19:02.433Z,45.00
2018-06-30T10:22:35.701Z,45.30
2018-06-30T10:26:08.996Z,44.70
2018-06-30T10:29:42.288Z,44.80
2018-06-30T10:36:48.581Z,44.70
2018-06-30T10:40:22.367Z,44.70
2018-06-30T10:43:55.616Z,44.30
2018-06-30T10:47:28.899Z,43.90
2018-06-30T10:51:02.179Z,43.80
2018-06-30T10:54:35.468Z,43.30
2018-06-30T10:58:08.727Z,43.10
2018-06-30T11:01:41.973Z,42.50
2018-06-30T11:05:15.285Z,42.40
2018-06-30T11:08:48.531Z,42.60
2018-06-30T11:12:21.761Z,42.40
2018-06-30T11:15:54.995Z,41.80
2018-06-30T11:19:28.255Z,40.80
2018-06-30T11:23:01.528Z,40.80
2018-06-30T11:26:34.893Z,40.50
2018-06-30T11:33:41.168Z,39.50
2018-06-30T11:37:14.511Z,38.90
2018-06-30T11:40:47.795Z,37.60
2018-06-30T11:44:21.020Z,38.10
2018-06-30T11:47:54.259Z,37.70
2018-06-30T11:51:27.511Z,37.30
2018-06-30T11:55:00.768Z,37.30
2018-06-30T11:58:34.035Z,37.10
2018-06-30T12:02:07.317Z,36.80
2018-06-30T12:05:40.600Z,36.40
2018-06-30T12:09:13.910Z,36.20
2018-06-30T12:12:47.131Z,36.10
2018-06-30T12:16:20.363Z,36.10
2018-06-30T12:19:53.660Z,35.10
2018-06-30T12:23:26.892Z,35.70
2018-06-30T12:34:06.232Z,35.80
2018-06-30T12:37:39.478Z,35.90
2018-06-30T12:41:12.770Z,35.90
2018-06-30T12:44:46.003Z,35.70
2018-06-30T12:48:19.263Z,35.80
2018-06-30T12:51:52.498Z,35.20
2018-06-30T12:55:25.764Z,35.10
2018-06-30T12:58:59.025Z,34.70
2018-06-30T13:02:32.272Z,34.50
2018-06-30T13:06:05.598Z,35.20
2018-06-30T13:09:38.821Z,34.70
2018-06-30T13:13:12.049Z,34.00
2018-06-30T13:16:45.327Z,33.90
2018-06-30T13:20:18.628Z,33.10
2018-06-30T13:23:51.903Z,32.80
2018-06-30T13:27:25.252Z,32.80
2018-06-30T13:30:58.516Z,31.90
2018-06-30T13:34:31.864Z,31.30
2018-06-30T13:38:05.088Z,30.60
2018-06-30T13:41:38.369Z,29.40
2018-06-30T13:45:11.919Z,29.30
2018-06-30T13:48:45.167Z,28.80
2018-06-30T13:52:18.418Z,28.20
2018-06-30T13:55:51.687Z,27.50
2018-06-30T13:59:24.931Z,26.90
2018-06-30T14:02:58.168Z,26.70
2018-06-30T14:06:31.409Z,26.70
2018-06-30T14:10:05.535Z,26.70
2018-06-30T14:13:38.798Z,26.10
2018-06-30T14:17:12.011Z,25.30
2018-06-30T14:24:18.382Z,24.60
2018-06-30T14:27:51.619Z,23.80
2018-06-30T14:31:24.867Z,23.80
2018-06-30T14:34:58.112Z,22.80
2018-06-30T14:38:31.377Z,22.90
2018-06-30T14:42:04.633Z,21.70
2018-06-30T14:45:37.886Z,21.30
2018-06-30T14:49:11.138Z,21.10
2018-06-30T14:52:44.407Z,20.40
2018-06-30T14:59:50.668Z,20.10
2018-06-30T15:03:23.915Z,19.50
2018-06-30T15:06:57.206Z,19.50
2018-06-30T15:10:30.459Z,19.30
2018-06-30T15:14:03.800Z,18.70
2018-06-30T15:17:37.424Z,18.30
2018-06-30T15:21:10.689Z,17.90
2018-06-30T15:24:43.971Z,17.80
2018-06-30T15:28:17.238Z,17.50
2018-06-30T15:31:50.477Z,17.80
2018-06-30T15:35:23.787Z,17.30
2018-06-30T15:38:57.142Z,17.20
2018-06-30T15:42:30.444Z,17.30
2018-06-30T15:46:03.784Z,16.80
2018-06-30T15:49:37.068Z,16.80
2018-06-30T15:53:10.329Z,16.80
2018-06-30T15:56:43.707Z,16.80
2018-06-30T16:00:17.035Z,16.70
2018-06-30T16:03:50.370Z,17.60
2018-06-30T16:07:23.701Z,17.10
2018-06-30T16:10:56.922Z,17.30
2018-06-30T16:14:30.205Z,17.00
2018-06-30T16:21:37.190Z,17.10
2018-06-30T16:25:10.469Z,16.90
2018-06-30T16:28:43.747Z,16.80
2018-06-30T16:32:17.002Z,17.30
2018-06-30T16:35:50.241Z,17.70
2018-06-30T16:39:23.569Z,18.70
2018-06-30T16:42:56.807Z,19.50
2018-06-30T16:46:30.068Z,20.10
2018-06-30T16:50:03.366Z,20.80
2018-06-30T16:53:36.628Z,21.10
2018-06-30T16:57:09.877Z,21.40
2018-06-30T17:00:43.137Z,22.10
2018-06-30T17:04:16.409Z,22.20
2018-06-30T17:07:50.166Z,22.80
2018-06-30T17:11:23.415Z,22.70
2018-06-30T17:14:56.721Z,23.00
2018-06-30T17:18:30.089Z,22.90
2018-06-30T17:25:36.433Z,23.70
2018-06-30T17:29:09.689Z,23.40
2018-06-30T17:32:42.941Z,23.50
2018-06-30T17:36:16.181Z,23.60
2018-06-30T17:39:49.428Z,23.90
2018-06-30T17:43:22.710Z,23.80
2018-06-30T17:46:55.991Z,23.90
2018-06-30T17:50:29.288Z,24.10
2018-06-30T17:54:02.679Z,24.50
2018-06-30T17:57:35.912Z,24.70
2018-06-30T18:01:09.154Z,24.80
2018-06-30T18:08:15.924Z,25.20
2018-06-30T18:11:49.284Z,25.40
2018-06-30T18:15:22.745Z,25.50
2018-06-30T18:18:56.133Z,25.70
2018-06-30T18:22:29.868Z,25.90
2018-06-30T18:29:37.037Z,26.50
2018-06-30T18:33:10.297Z,26.50
2018-06-30T18:36:43.527Z,26.70
2018-06-30T18:40:16.825Z,26.90
2018-06-30T18:43:50.097Z,27.10
2018-06-30T18:47:23.343Z,27.30
2018-06-30T18:50:56.615Z,27.30
2018-06-30T18:54:29.904Z,27.50
2018-06-30T18:58:03.179Z,27.60
2018-06-30T19:01:36.645Z,27.90
2018-06-30T19:05:09.896Z,28.00
2018-06-30T19:12:16.197Z,28.50
2018-06-30T19:15:49.845Z,28.60
2018-06-30T19:22:56.044Z,29.00
2018-06-30T19:26:29.296Z,29.00
2018-06-30T19:30:03.080Z,29.30
2018-06-30T19:33:36.343Z,29.40
2018-06-30T19:37:09.571Z,29.60
2018-06-30T19:40:42.839Z,29.80
2018-06-30T19:44:16.075Z,29.90
2018-06-30T19:47:49.324Z,30.20
2018-06-30T19:51:22.569Z,30.30
2018-06-30T19:54:56.744Z,30.50
2018-06-30T19:58:29.988Z,30.80
2018-06-30T20:02:03.321Z,31.20
2018-06-30T20:09:10.189Z,31.60
2018-06-30T20:12:43.476Z,31.80
2018-06-30T20:16:16.728Z,31.90
2018-06-30T20:23:23.142Z,32.10
2018-06-30T20:26:56.396Z,32.50
2018-06-30T20:30:29.656Z,32.50
2018-06-30T20:34:02.921Z,32.80
2018-06-30T20:37:36.175Z,33.10
2018-06-30T20:41:09.444Z,33.30
2018-06-30T20:44:42.702Z,33.30
2018-06-30T20:48:16.355Z,33.50
2018-06-30T20:51:49.600Z,33.70
2018-06-30T20:55:22.832Z,33.70
2018-06-30T20:58:56.083Z,33.80
2018-06-30T21:02:29.400Z,33.90
2018-06-30T21:06:02.634Z,34.00
2018-06-30T21:09:36.288Z,34.00
2018-06-30T21:13:09.556Z,34.10
2018-06-30T21:16:42.840Z,34.20
2018-06-30T21:20:16.080Z,34.40
2018-06-30T21:23:49.399Z,34.40
2018-06-30T21:27:22.655Z,34.30
2018-06-30T21:30:55.897Z,34.20
2018-06-30T21:34:29.145Z,34.10
2018-06-30T21:38:02.396Z,34.20
2018-06-30T21:41:35.631Z,34.20
2018-06-30T21:45:08.863Z,34.30
2018-06-30T21:48:42.092Z,34.50
2018-06-30T21:52:15.412Z,34.60
2018-06-30T21:55:48.669Z,34.80
2018-06-30T21:59:21.913Z,34.70
2018-06-30T22:02:55.144Z,34.80
2018-06-30T22:06:28.372Z,34.80
2018-06-30T22:10:01.606Z,35.10
2018-06-30T22:13:34.859Z,35.00
2018-06-30T22:17:08.068Z,35.00
2018-06-30T22:20:41.314Z,35.10
2018-06-30T22:24:14.551Z,35.10
2018-06-30T22:27:47.792Z,35.20
2018-06-30T22:31:21.055Z,35.20
2018-06-30T22:34:54.275Z,35.10
2018-06-30T22:38:27.487Z,35.20
2018-06-30T22:42:00.708Z,35.30
2018-06-30T22:45:33.946Z,35.60
2018-06-30T22:52:40.973Z,35.60
2018-06-30T22:56:14.281Z,35.80
2018-06-30T22:59:47.544Z,35.70
2018-06-30T23:03:20.808Z,36.00
2018-06-30T23:06:54.358Z,36.20
2018-06-30T23:10:27.605Z,36.40
2018-06-30T23:14:00.859Z,36.60
2018-06-30T23:17:34.139Z,36.70
2018-06-30T23:21:07.373Z,36.80
2018-06-30T23:24:40.620Z,37.10
2018-06-30T23:28:13.855Z,37.30
2018-06-30T23:31:47.104Z,37.50
2018-06-30T23:35:21.003Z,37.70
2018-06-30T23:38:54.224Z,38.00
2018-06-30T23:42:27.553Z,38.10
2018-06-30T23:46:00.775Z,38.50
2018-06-30T23:53:07.010Z,38.60
2018-06-30T23:56:40.273Z,38.80
